sensor_id;sensor_type;location;lat;lon;timestamp;P1;durP1;ratioP1;P2;durP2;ratioP2
20462;SDS011;10390;53.566;9.980;2022-08-25T00:00:56;8.77;;;6.28;;
20462;SDS011;10390;53.566;9.980;2022-08-25T00:03:23;6.75;;;6.15;;
20462;SDS011;10390;53.566;9.980;2022-08-25T00:05:49;7.75;;;6.40;;
20462;SDS011;10390;53.566;9.980;2022-08-25T00:08:15;7.68;;;6.88;;
20462;SDS011;10390;53.566;9.980;2022-08-25T00:10:41;8.65;;;7.43;;
20462;SDS011;10390;53.566;9.980;2022-08-25T00:13:07;7.65;;;6.50;;
20462;SDS011;10390;53.566;9.980;2022-08-25T00:15:33;8.68;;;6.60;;
20462;SDS011;10390;53.566;9.980;2022-08-25T00:17:59;7.95;;;7.15;;
20462;SDS011;10390;53.566;9.980;2022-08-25T00:20:27;7.82;;;7.07;;
20462;SDS011;10390;53.566;9.980;2022-08-25T00:22:54;8.50;;;6.75;;
20462;SDS011;10390;53.566;9.980;2022-08-25T00:25:20;6.90;;;6.30;;
20462;SDS011;10390;53.566;9.980;2022-08-25T00:27:48;9.05;;;6.68;;
20462;SDS011;10390;53.566;9.980;2022-08-25T00:30:15;7.63;;;6.57;;
20462;SDS011;10390;53.566;9.980;2022-08-25T00:32:43;7.22;;;6.55;;
20462;SDS011;10390;53.566;9.980;2022-08-25T00:35:10;7.88;;;6.40;;
20462;SDS011;10390;53.566;9.980;2022-08-25T00:37:36;7.22;;;6.53;;
20462;SDS011;10390;53.566;9.980;2022-08-25T00:40:05;8.02;;;7.18;;
20462;SDS011;10390;53.566;9.980;2022-08-25T00:42:32;7.53;;;6.85;;
20462;SDS011;10390;53.566;9.980;2022-08-25T00:44:58;7.55;;;6.85;;
20462;SDS011;10390;53.566;9.980;2022-08-25T00:47:24;8.20;;;6.32;;
20462;SDS011;10390;53.566;9.980;2022-08-25T00:49:51;6.93;;;6.20;;
20462;SDS011;10390;53.566;9.980;2022-08-25T00:54:51;7.55;;;6.78;;
20462;SDS011;10390;53.566;9.980;2022-08-25T00:57:28;7.07;;;6.32;;
20462;SDS011;10390;53.566;9.980;2022-08-25T01:00:05;7.57;;;6.75;;
20462;SDS011;10390;53.566;9.980;2022-08-25T01:02:43;7.00;;;6.30;;
20462;SDS011;10390;53.566;9.980;2022-08-25T01:05:09;6.85;;;6.20;;
20462;SDS011;10390;53.566;9.980;2022-08-25T01:07:36;7.20;;;6.60;;
20462;SDS011;10390;53.566;9.980;2022-08-25T01:10:04;7.03;;;6.30;;
20462;SDS011;10390;53.566;9.980;2022-08-25T01:12:32;7.25;;;6.55;;
20462;SDS011;10390;53.566;9.980;2022-08-25T01:15:00;6.95;;;6.30;;
20462;SDS011;10390;53.566;9.980;2022-08-25T01:17:34;7.93;;;7.13;;
20462;SDS011;10390;53.566;9.980;2022-08-25T01:20:19;6.80;;;6.20;;
20462;SDS011;10390;53.566;9.980;2022-08-25T01:22:48;6.97;;;6.28;;
20462;SDS011;10390;53.566;9.980;2022-08-25T01:25:19;7.80;;;6.60;;
20462;SDS011;10390;53.566;9.980;2022-08-25T01:28:03;7.15;;;6.25;;
20462;SDS011;10390;53.566;9.980;2022-08-25T01:30:30;8.80;;;7.07;;
20462;SDS011;10390;53.566;9.980;2022-08-25T01:32:56;7.35;;;6.65;;
20462;SDS011;10390;53.566;9.980;2022-08-25T01:35:22;7.75;;;6.93;;
20462;SDS011;10390;53.566;9.980;2022-08-25T01:37:47;7.90;;;7.10;;
20462;SDS011;10390;53.566;9.980;2022-08-25T01:40:13;8.23;;;6.85;;
20462;SDS011;10390;53.566;9.980;2022-08-25T01:42:51;7.55;;;6.85;;
20462;SDS011;10390;53.566;9.980;2022-08-25T01:45:31;7.63;;;6.82;;
20462;SDS011;10390;53.566;9.980;2022-08-25T01:47:58;6.95;;;6.28;;
20462;SDS011;10390;53.566;9.980;2022-08-25T01:50:25;7.88;;;6.65;;
20462;SDS011;10390;53.566;9.980;2022-08-25T01:52:58;7.97;;;6.47;;
20462;SDS011;10390;53.566;9.980;2022-08-25T01:55:31;7.50;;;6.80;;
20462;SDS011;10390;53.566;9.980;2022-08-25T01:58:22;7.43;;;6.72;;
20462;SDS011;10390;53.566;9.980;2022-08-25T02:00:55;11.35;;;6.65;;
20462;SDS011;10390;53.566;9.980;2022-08-25T02:03:24;7.38;;;6.68;;
20462;SDS011;10390;53.566;9.980;2022-08-25T02:05:51;7.15;;;6.45;;
20462;SDS011;10390;53.566;9.980;2022-08-25T02:08:17;7.25;;;6.53;;
20462;SDS011;10390;53.566;9.980;2022-08-25T02:10:43;7.25;;;6.47;;
20462;SDS011;10390;53.566;9.980;2022-08-25T02:13:10;7.50;;;6.70;;
20462;SDS011;10390;53.566;9.980;2022-08-25T02:15:44;7.07;;;6.38;;
20462;SDS011;10390;53.566;9.980;2022-08-25T02:18:14;6.70;;;6.10;;
20462;SDS011;10390;53.566;9.980;2022-08-25T02:20:41;8.48;;;6.68;;
20462;SDS011;10390;53.566;9.980;2022-08-25T02:23:07;7.05;;;6.35;;
20462;SDS011;10390;53.566;9.980;2022-08-25T02:25:34;7.03;;;6.25;;
20462;SDS011;10390;53.566;9.980;2022-08-25T02:28:06;7.13;;;6.43;;
20462;SDS011;10390;53.566;9.980;2022-08-25T02:30:34;7.35;;;6.65;;
20462;SDS011;10390;53.566;9.980;2022-08-25T02:33:01;7.07;;;6.43;;
20462;SDS011;10390;53.566;9.980;2022-08-25T02:35:28;8.13;;;6.50;;
20462;SDS011;10390;53.566;9.980;2022-08-25T02:37:54;7.35;;;6.60;;
20462;SDS011;10390;53.566;9.980;2022-08-25T02:40:20;7.00;;;6.30;;
20462;SDS011;10390;53.566;9.980;2022-08-25T02:42:47;6.88;;;6.18;;
20462;SDS011;10390;53.566;9.980;2022-08-25T02:45:14;6.40;;;5.80;;
20462;SDS011;10390;53.566;9.980;2022-08-25T02:47:40;7.10;;;6.40;;
20462;SDS011;10390;53.566;9.980;2022-08-25T02:50:07;6.90;;;6.20;;
20462;SDS011;10390;53.566;9.980;2022-08-25T02:52:34;6.32;;;5.72;;
20462;SDS011;10390;53.566;9.980;2022-08-25T02:55:01;7.53;;;6.47;;
20462;SDS011;10390;53.566;9.980;2022-08-25T02:57:29;7.70;;;6.15;;
20462;SDS011;10390;53.566;9.980;2022-08-25T02:59:56;8.90;;;6.43;;
20462;SDS011;10390;53.566;9.980;2022-08-25T03:02:23;6.75;;;6.15;;
20462;SDS011;10390;53.566;9.980;2022-08-25T03:04:50;6.78;;;6.18;;
20462;SDS011;10390;53.566;9.980;2022-08-25T03:07:17;7.75;;;6.10;;
20462;SDS011;10390;53.566;9.980;2022-08-25T03:09:45;6.88;;;6.20;;
20462;SDS011;10390;53.566;9.980;2022-08-25T03:12:11;6.90;;;6.20;;
20462;SDS011;10390;53.566;9.980;2022-08-25T03:14:37;7.20;;;6.50;;
20462;SDS011;10390;53.566;9.980;2022-08-25T03:17:05;9.35;;;6.97;;
20462;SDS011;10390;53.566;9.980;2022-08-25T03:19:32;7.03;;;6.32;;
20462;SDS011;10390;53.566;9.980;2022-08-25T03:21:58;9.02;;;6.80;;
20462;SDS011;10390;53.566;9.980;2022-08-25T03:24:24;7.93;;;6.45;;
20462;SDS011;10390;53.566;9.980;2022-08-25T03:26:50;10.15;;;6.55;;
20462;SDS011;10390;53.566;9.980;2022-08-25T03:29:21;7.65;;;6.95;;
20462;SDS011;10390;53.566;9.980;2022-08-25T03:31:55;7.75;;;6.07;;
20462;SDS011;10390;53.566;9.980;2022-08-25T03:34:23;7.38;;;6.60;;
20462;SDS011;10390;53.566;9.980;2022-08-25T03:36:51;7.05;;;6.45;;
20462;SDS011;10390;53.566;9.980;2022-08-25T03:39:19;7.50;;;6.80;;
20462;SDS011;10390;53.566;9.980;2022-08-25T03:41:48;8.80;;;6.55;;
20462;SDS011;10390;53.566;9.980;2022-08-25T03:44:16;6.82;;;6.22;;
20462;SDS011;10390;53.566;9.980;2022-08-25T03:46:44;7.13;;;6.43;;
20462;SDS011;10390;53.566;9.980;2022-08-25T03:49:17;7.05;;;6.40;;
20462;SDS011;10390;53.566;9.980;2022-08-25T03:51:47;7.22;;;6.35;;
20462;SDS011;10390;53.566;9.980;2022-08-25T03:54:17;7.22;;;6.55;;
20462;SDS011;10390;53.566;9.980;2022-08-25T03:56:47;7.13;;;6.43;;
20462;SDS011;10390;53.566;9.980;2022-08-25T03:59:13;8.02;;;6.32;;
20462;SDS011;10390;53.566;9.980;2022-08-25T04:01:40;6.57;;;5.88;;
20462;SDS011;10390;53.566;9.980;2022-08-25T04:04:09;6.80;;;6.05;;
20462;SDS011;10390;53.566;9.980;2022-08-25T04:06:37;7.47;;;6.03;;
20462;SDS011;10390;53.566;9.980;2022-08-25T04:09:04;7.53;;;6.25;;
20462;SDS011;10390;53.566;9.980;2022-08-25T04:11:31;6.63;;;5.93;;
20462;SDS011;10390;53.566;9.980;2022-08-25T04:13:57;7.65;;;6.55;;
20462;SDS011;10390;53.566;9.980;2022-08-25T04:16:26;9.55;;;7.30;;
20462;SDS011;10390;53.566;9.980;2022-08-25T04:18:55;7.47;;;6.78;;
20462;SDS011;10390;53.566;9.980;2022-08-25T04:21:23;7.40;;;6.43;;
20462;SDS011;10390;53.566;9.980;2022-08-25T04:23:51;6.47;;;5.88;;
20462;SDS011;10390;53.566;9.980;2022-08-25T04:26:20;7.60;;;6.35;;
20462;SDS011;10390;53.566;9.980;2022-08-25T04:28:50;7.20;;;6.07;;
20462;SDS011;10390;53.566;9.980;2022-08-25T04:31:17;8.07;;;6.40;;
20462;SDS011;10390;53.566;9.980;2022-08-25T04:33:45;7.47;;;5.97;;
20462;SDS011;10390;53.566;9.980;2022-08-25T04:36:12;8.32;;;6.25;;
20462;SDS011;10390;53.566;9.980;2022-08-25T04:38:40;7.38;;;6.05;;
20462;SDS011;10390;53.566;9.980;2022-08-25T04:41:07;6.70;;;5.80;;
20462;SDS011;10390;53.566;9.980;2022-08-25T04:43:36;6.57;;;5.88;;
20462;SDS011;10390;53.566;9.980;2022-08-25T04:46:04;6.82;;;6.15;;
20462;SDS011;10390;53.566;9.980;2022-08-25T04:48:35;6.88;;;5.57;;
20462;SDS011;10390;53.566;9.980;2022-08-25T04:51:05;8.13;;;6.10;;
20462;SDS011;10390;53.566;9.980;2022-08-25T04:53:33;8.15;;;6.22;;
20462;SDS011;10390;53.566;9.980;2022-08-25T04:56:00;7.22;;;5.75;;
20462;SDS011;10390;53.566;9.980;2022-08-25T04:58:30;6.70;;;5.43;;
20462;SDS011;10390;53.566;9.980;2022-08-25T05:01:06;6.93;;;6.22;;
20462;SDS011;10390;53.566;9.980;2022-08-25T05:03:35;6.93;;;5.93;;
20462;SDS011;10390;53.566;9.980;2022-08-25T05:06:02;7.72;;;6.18;;
20462;SDS011;10390;53.566;9.980;2022-08-25T05:08:30;6.40;;;5.70;;
20462;SDS011;10390;53.566;9.980;2022-08-25T05:10:56;6.65;;;5.78;;
20462;SDS011;10390;53.566;9.980;2022-08-25T05:13:23;6.82;;;5.95;;
20462;SDS011;10390;53.566;9.980;2022-08-25T05:15:51;7.40;;;5.78;;
20462;SDS011;10390;53.566;9.980;2022-08-25T05:18:19;6.50;;;5.03;;
20462;SDS011;10390;53.566;9.980;2022-08-25T05:20:47;6.93;;;6.13;;
20462;SDS011;10390;53.566;9.980;2022-08-25T05:23:14;8.63;;;6.20;;
20462;SDS011;10390;53.566;9.980;2022-08-25T05:25:40;8.23;;;7.53;;
20462;SDS011;10390;53.566;9.980;2022-08-25T05:28:06;7.78;;;7.00;;
20462;SDS011;10390;53.566;9.980;2022-08-25T05:30:33;7.95;;;7.15;;
20462;SDS011;10390;53.566;9.980;2022-08-25T05:33:03;7.85;;;7.15;;
20462;SDS011;10390;53.566;9.980;2022-08-25T05:35:29;8.27;;;7.28;;
20462;SDS011;10390;53.566;9.980;2022-08-25T05:37:56;7.95;;;7.18;;
20462;SDS011;10390;53.566;9.980;2022-08-25T05:40:24;8.10;;;7.30;;
20462;SDS011;10390;53.566;9.980;2022-08-25T05:42:50;7.80;;;7.00;;
20462;SDS011;10390;53.566;9.980;2022-08-25T05:45:16;8.25;;;7.22;;
20462;SDS011;10390;53.566;9.980;2022-08-25T05:47:42;8.57;;;7.68;;
20462;SDS011;10390;53.566;9.980;2022-08-25T05:50:09;9.32;;;7.88;;
20462;SDS011;10390;53.566;9.980;2022-08-25T05:52:35;8.52;;;7.63;;
20462;SDS011;10390;53.566;9.980;2022-08-25T05:55:02;8.43;;;7.30;;
20462;SDS011;10390;53.566;9.980;2022-08-25T05:57:31;8.38;;;7.57;;
20462;SDS011;10390;53.566;9.980;2022-08-25T05:59:57;10.38;;;8.52;;
20462;SDS011;10390;53.566;9.980;2022-08-25T06:02:23;9.27;;;8.27;;
20462;SDS011;10390;53.566;9.980;2022-08-25T06:05:12;9.80;;;8.20;;
20462;SDS011;10390;53.566;9.980;2022-08-25T06:07:46;10.40;;;9.30;;
20462;SDS011;10390;53.566;9.980;2022-08-25T06:10:15;10.10;;;9.00;;
20462;SDS011;10390;53.566;9.980;2022-08-25T06:12:43;11.48;;;10.15;;
20462;SDS011;10390;53.566;9.980;2022-08-25T06:15:11;11.13;;;9.75;;
20462;SDS011;10390;53.566;9.980;2022-08-25T06:17:39;10.27;;;9.27;;
20462;SDS011;10390;53.566;9.980;2022-08-25T06:20:11;10.65;;;9.65;;
20462;SDS011;10390;53.566;9.980;2022-08-25T06:22:40;18.70;;;10.35;;
20462;SDS011;10390;53.566;9.980;2022-08-25T06:25:07;13.48;;;10.38;;
20462;SDS011;10390;53.566;9.980;2022-08-25T06:27:36;11.98;;;10.85;;
20462;SDS011;10390;53.566;9.980;2022-08-25T06:30:03;10.60;;;9.52;;
20462;SDS011;10390;53.566;9.980;2022-08-25T06:32:33;10.88;;;9.77;;
20462;SDS011;10390;53.566;9.980;2022-08-25T06:35:04;11.32;;;10.13;;
20462;SDS011;10390;53.566;9.980;2022-08-25T06:37:32;12.82;;;10.40;;
20462;SDS011;10390;53.566;9.980;2022-08-25T06:39:59;10.15;;;9.15;;
20462;SDS011;10390;53.566;9.980;2022-08-25T06:42:25;10.68;;;9.68;;
20462;SDS011;10390;53.566;9.980;2022-08-25T06:44:51;13.85;;;9.70;;
20462;SDS011;10390;53.566;9.980;2022-08-25T06:47:17;11.98;;;10.68;;
20462;SDS011;10390;53.566;9.980;2022-08-25T06:49:43;10.27;;;9.05;;
20462;SDS011;10390;53.566;9.980;2022-08-25T06:52:10;10.90;;;9.60;;
20462;SDS011;10390;53.566;9.980;2022-08-25T06:54:36;11.60;;;10.18;;
20462;SDS011;10390;53.566;9.980;2022-08-25T06:57:02;11.65;;;10.25;;
20462;SDS011;10390;53.566;9.980;2022-08-25T06:59:29;11.70;;;10.23;;
20462;SDS011;10390;53.566;9.980;2022-08-25T07:01:54;11.35;;;10.13;;
20462;SDS011;10390;53.566;9.980;2022-08-25T07:04:20;11.02;;;10.02;;
20462;SDS011;10390;53.566;9.980;2022-08-25T07:06:46;10.05;;;8.85;;
20462;SDS011;10390;53.566;9.980;2022-08-25T07:09:12;11.35;;;10.25;;
20462;SDS011;10390;53.566;9.980;2022-08-25T07:11:41;11.55;;;10.35;;
20462;SDS011;10390;53.566;9.980;2022-08-25T07:14:10;11.23;;;9.65;;
20462;SDS011;10390;53.566;9.980;2022-08-25T07:16:38;10.15;;;9.15;;
20462;SDS011;10390;53.566;9.980;2022-08-25T07:19:05;11.23;;;10.13;;
20462;SDS011;10390;53.566;9.980;2022-08-25T07:21:32;11.13;;;10.02;;
20462;SDS011;10390;53.566;9.980;2022-08-25T07:24:00;10.18;;;9.18;;
20462;SDS011;10390;53.566;9.980;2022-08-25T07:26:30;10.63;;;9.55;;
20462;SDS011;10390;53.566;9.980;2022-08-25T07:29:01;10.93;;;9.90;;
20462;SDS011;10390;53.566;9.980;2022-08-25T07:31:31;10.75;;;9.75;;
20462;SDS011;10390;53.566;9.980;2022-08-25T07:33:57;10.38;;;9.32;;
20462;SDS011;10390;53.566;9.980;2022-08-25T07:36:41;11.07;;;9.98;;
20462;SDS011;10390;53.566;9.980;2022-08-25T07:39:07;11.35;;;10.25;;
20462;SDS011;10390;53.566;9.980;2022-08-25T07:41:37;11.20;;;10.18;;
20462;SDS011;10390;53.566;9.980;2022-08-25T07:44:06;10.75;;;9.50;;
20462;SDS011;10390;53.566;9.980;2022-08-25T07:46:35;11.18;;;10.05;;
20462;SDS011;10390;53.566;9.980;2022-08-25T07:49:01;11.40;;;9.70;;
20462;SDS011;10390;53.566;9.980;2022-08-25T07:51:27;12.25;;;11.05;;
20462;SDS011;10390;53.566;9.980;2022-08-25T07:53:53;11.90;;;10.57;;
20462;SDS011;10390;53.566;9.980;2022-08-25T07:56:19;10.80;;;9.50;;
20462;SDS011;10390;53.566;9.980;2022-08-25T07:58:45;11.25;;;10.15;;
20462;SDS011;10390;53.566;9.980;2022-08-25T08:01:15;11.05;;;9.60;;
20462;SDS011;10390;53.566;9.980;2022-08-25T08:03:44;10.40;;;9.40;;
20462;SDS011;10390;53.566;9.980;2022-08-25T08:06:12;9.73;;;8.82;;
20462;SDS011;10390;53.566;9.980;2022-08-25T08:08:41;10.15;;;9.25;;
20462;SDS011;10390;53.566;9.980;2022-08-25T08:13:57;10.98;;;9.95;;
20462;SDS011;10390;53.566;9.980;2022-08-25T08:16:24;10.45;;;9.27;;
20462;SDS011;10390;53.566;9.980;2022-08-25T08:18:52;10.10;;;9.10;;
20462;SDS011;10390;53.566;9.980;2022-08-25T08:21:22;10.52;;;9.63;;
20462;SDS011;10390;53.566;9.980;2022-08-25T08:23:52;10.88;;;9.70;;
20462;SDS011;10390;53.566;9.980;2022-08-25T08:26:19;11.23;;;10.07;;
20462;SDS011;10390;53.566;9.980;2022-08-25T08:28:45;10.82;;;9.73;;
20462;SDS011;10390;53.566;9.980;2022-08-25T08:31:13;10.90;;;9.90;;
20462;SDS011;10390;53.566;9.980;2022-08-25T08:33:39;9.05;;;8.10;;
20462;SDS011;10390;53.566;9.980;2022-08-25T08:36:08;11.10;;;10.10;;
20462;SDS011;10390;53.566;9.980;2022-08-25T08:38:36;12.05;;;10.88;;
20462;SDS011;10390;53.566;9.980;2022-08-25T08:44:00;11.95;;;9.82;;
20462;SDS011;10390;53.566;9.980;2022-08-25T08:46:46;9.93;;;8.93;;
20462;SDS011;10390;53.566;9.980;2022-08-25T08:49:36;10.60;;;9.50;;
20462;SDS011;10390;53.566;9.980;2022-08-25T08:52:23;10.43;;;9.43;;
20462;SDS011;10390;53.566;9.980;2022-08-25T08:55:22;9.95;;;8.95;;
20462;SDS011;10390;53.566;9.980;2022-08-25T08:57:54;11.13;;;10.02;;
20462;SDS011;10390;53.566;9.980;2022-08-25T09:00:44;9.63;;;8.80;;
20462;SDS011;10390;53.566;9.980;2022-08-25T09:03:34;9.25;;;8.45;;
20462;SDS011;10390;53.566;9.980;2022-08-25T09:06:06;10.13;;;9.13;;
20462;SDS011;10390;53.566;9.980;2022-08-25T09:08:37;11.13;;;9.32;;
20462;SDS011;10390;53.566;9.980;2022-08-25T09:25:27;10.50;;;9.50;;
20462;SDS011;10390;53.566;9.980;2022-08-25T09:28:21;10.52;;;9.63;;
20462;SDS011;10390;53.566;9.980;2022-08-25T09:31:00;10.88;;;9.77;;
20462;SDS011;10390;53.566;9.980;2022-08-25T09:33:30;11.82;;;9.55;;
20462;SDS011;10390;53.566;9.980;2022-08-25T09:35:58;10.35;;;9.50;;
20462;SDS011;10390;53.566;9.980;2022-08-25T09:38:25;10.18;;;9.18;;
20462;SDS011;10390;53.566;9.980;2022-08-25T09:40:56;10.52;;;9.57;;
20462;SDS011;10390;53.566;9.980;2022-08-25T09:48:51;11.35;;;10.25;;
20462;SDS011;10390;53.566;9.980;2022-08-25T09:51:22;10.73;;;9.73;;
20462;SDS011;10390;53.566;9.980;2022-08-25T09:56:58;11.73;;;10.63;;
20462;SDS011;10390;53.566;9.980;2022-08-25T09:59:35;11.32;;;10.32;;
20462;SDS011;10390;53.566;9.980;2022-08-25T10:02:03;11.68;;;9.38;;
20462;SDS011;10390;53.566;9.980;2022-08-25T10:04:45;10.45;;;9.55;;
20462;SDS011;10390;53.566;9.980;2022-08-25T10:07:47;13.93;;;9.13;;
20462;SDS011;10390;53.566;9.980;2022-08-25T10:10:21;10.63;;;9.63;;
20462;SDS011;10390;53.566;9.980;2022-08-25T10:13:01;10.82;;;9.93;;
20462;SDS011;10390;53.566;9.980;2022-08-25T10:15:37;12.05;;;10.95;;
20462;SDS011;10390;53.566;9.980;2022-08-25T10:21:07;11.15;;;10.25;;
20462;SDS011;10390;53.566;9.980;2022-08-25T10:23:37;11.70;;;10.07;;
20462;SDS011;10390;53.566;9.980;2022-08-25T10:29:16;11.50;;;10.50;;
20462;SDS011;10390;53.566;9.980;2022-08-25T10:35:26;10.02;;;9.13;;
20462;SDS011;10390;53.566;9.980;2022-08-25T10:44:29;11.23;;;10.10;;
20462;SDS011;10390;53.566;9.980;2022-08-25T10:50:46;11.52;;;10.52;;
20462;SDS011;10390;53.566;9.980;2022-08-25T10:56:19;10.70;;;9.70;;
20462;SDS011;10390;53.566;9.980;2022-08-25T10:59:09;11.70;;;10.50;;
20462;SDS011;10390;53.566;9.980;2022-08-25T11:14:02;9.43;;;8.57;;
20462;SDS011;10390;53.566;9.980;2022-08-25T11:16:40;10.07;;;9.25;;
20462;SDS011;10390;53.566;9.980;2022-08-25T11:19:18;9.15;;;8.45;;
20462;SDS011;10390;53.566;9.980;2022-08-25T11:24:33;9.23;;;8.43;;
20462;SDS011;10390;53.566;9.980;2022-08-25T11:27:31;9.98;;;9.07;;
20462;SDS011;10390;53.566;9.980;2022-08-25T11:30:10;9.40;;;8.45;;
20462;SDS011;10390;53.566;9.980;2022-08-25T11:32:39;10.07;;;9.18;;
20462;SDS011;10390;53.566;9.980;2022-08-25T11:35:12;9.57;;;8.68;;
20462;SDS011;10390;53.566;9.980;2022-08-25T11:41:07;9.05;;;8.25;;
20462;SDS011;10390;53.566;9.980;2022-08-25T11:46:47;8.68;;;7.97;;
20462;SDS011;10390;53.566;9.980;2022-08-25T11:54:57;9.27;;;8.13;;
20462;SDS011;10390;53.566;9.980;2022-08-25T11:58:16;9.85;;;8.90;;
20462;SDS011;10390;53.566;9.980;2022-08-25T12:00:58;9.63;;;8.40;;
20462;SDS011;10390;53.566;9.980;2022-08-25T12:21:08;8.88;;;8.07;;
20462;SDS011;10390;53.566;9.980;2022-08-25T12:34:30;9.98;;;9.10;;
20462;SDS011;10390;53.566;9.980;2022-08-25T12:37:19;9.80;;;8.68;;
20462;SDS011;10390;53.566;9.980;2022-08-25T12:47:48;8.82;;;8.13;;
20462;SDS011;10390;53.566;9.980;2022-08-25T12:53:53;10.40;;;9.45;;
20462;SDS011;10390;53.566;9.980;2022-08-25T12:56:15;8.88;;;8.07;;
20462;SDS011;10390;53.566;9.980;2022-08-25T13:12:56;7.90;;;7.22;;
20462;SDS011;10390;53.566;9.980;2022-08-25T13:15:46;8.32;;;7.57;;
20462;SDS011;10390;53.566;9.980;2022-08-25T13:18:27;8.82;;;8.02;;
20462;SDS011;10390;53.566;9.980;2022-08-25T13:21:01;8.45;;;7.75;;
20462;SDS011;10390;53.566;9.980;2022-08-25T13:24:09;9.10;;;8.40;;
20462;SDS011;10390;53.566;9.980;2022-08-25T13:26:41;7.82;;;7.13;;
20462;SDS011;10390;53.566;9.980;2022-08-25T13:31:35;8.55;;;7.70;;
20462;SDS011;10390;53.566;9.980;2022-08-25T13:34:04;7.68;;;7.07;;
20462;SDS011;10390;53.566;9.980;2022-08-25T13:36:34;9.65;;;8.68;;
20462;SDS011;10390;53.566;9.980;2022-08-25T13:39:27;8.40;;;7.70;;
20462;SDS011;10390;53.566;9.980;2022-08-25T13:41:55;8.80;;;8.10;;
20462;SDS011;10390;53.566;9.980;2022-08-25T13:44:23;8.55;;;7.85;;
20462;SDS011;10390;53.566;9.980;2022-08-25T13:47:05;9.40;;;8.60;;
20462;SDS011;10390;53.566;9.980;2022-08-25T13:49:42;9.27;;;8.50;;
20462;SDS011;10390;53.566;9.980;2022-08-25T13:52:15;8.88;;;8.07;;
20462;SDS011;10390;53.566;9.980;2022-08-25T13:54:55;8.65;;;7.95;;
20462;SDS011;10390;53.566;9.980;2022-08-25T13:57:24;8.95;;;8.02;;
20462;SDS011;10390;53.566;9.980;2022-08-25T13:59:59;9.20;;;8.30;;
20462;SDS011;10390;53.566;9.980;2022-08-25T14:05:06;8.27;;;7.57;;
20462;SDS011;10390;53.566;9.980;2022-08-25T14:07:35;8.90;;;8.20;;
20462;SDS011;10390;53.566;9.980;2022-08-25T14:10:29;8.43;;;7.82;;
20462;SDS011;10390;53.566;9.980;2022-08-25T14:13:11;8.80;;;8.10;;
20462;SDS011;10390;53.566;9.980;2022-08-25T14:16:05;8.98;;;8.27;;
20462;SDS011;10390;53.566;9.980;2022-08-25T14:18:50;8.93;;;8.23;;
20462;SDS011;10390;53.566;9.980;2022-08-25T14:21:21;9.48;;;8.57;;
20462;SDS011;10390;53.566;9.980;2022-08-25T14:23:53;10.32;;;8.80;;
20462;SDS011;10390;53.566;9.980;2022-08-25T14:26:20;9.98;;;9.05;;
20462;SDS011;10390;53.566;9.980;2022-08-25T14:28:49;9.50;;;8.60;;
20462;SDS011;10390;53.566;9.980;2022-08-25T14:33:51;9.63;;;8.68;;
20462;SDS011;10390;53.566;9.980;2022-08-25T14:36:21;9.57;;;8.60;;
20462;SDS011;10390;53.566;9.980;2022-08-25T14:38:47;9.75;;;8.88;;
20462;SDS011;10390;53.566;9.980;2022-08-25T14:41:13;9.18;;;8.38;;
20462;SDS011;10390;53.566;9.980;2022-08-25T14:43:40;9.13;;;8.35;;
20462;SDS011;10390;53.566;9.980;2022-08-25T14:46:08;9.20;;;8.40;;
20462;SDS011;10390;53.566;9.980;2022-08-25T14:48:47;9.40;;;8.70;;
20462;SDS011;10390;53.566;9.980;2022-08-25T14:51:19;10.55;;;9.65;;
20462;SDS011;10390;53.566;9.980;2022-08-25T14:53:47;9.98;;;9.18;;
20462;SDS011;10390;53.566;9.980;2022-08-25T14:56:14;9.75;;;8.98;;
20462;SDS011;10390;53.566;9.980;2022-08-25T14:58:40;9.23;;;8.43;;
20462;SDS011;10390;53.566;9.980;2022-08-25T15:01:08;9.88;;;9.07;;
20462;SDS011;10390;53.566;9.980;2022-08-25T15:03:39;8.88;;;8.18;;
20462;SDS011;10390;53.566;9.980;2022-08-25T15:06:10;9.25;;;8.40;;
20462;SDS011;10390;53.566;9.980;2022-08-25T15:08:40;9.90;;;9.00;;
20462;SDS011;10390;53.566;9.980;2022-08-25T15:11:25;9.80;;;9.00;;
20462;SDS011;10390;53.566;9.980;2022-08-25T15:13:52;10.00;;;9.20;;
20462;SDS011;10390;53.566;9.980;2022-08-25T15:18:57;9.65;;;8.23;;
20462;SDS011;10390;53.566;9.980;2022-08-25T15:21:24;9.43;;;8.63;;
20462;SDS011;10390;53.566;9.980;2022-08-25T15:23:50;9.45;;;8.60;;
20462;SDS011;10390;53.566;9.980;2022-08-25T15:26:16;8.80;;;8.05;;
20462;SDS011;10390;53.566;9.980;2022-08-25T15:28:43;8.60;;;7.95;;
20462;SDS011;10390;53.566;9.980;2022-08-25T15:31:13;9.43;;;8.63;;
20462;SDS011;10390;53.566;9.980;2022-08-25T15:33:41;8.63;;;7.93;;
20462;SDS011;10390;53.566;9.980;2022-08-25T15:36:08;8.82;;;8.02;;
20462;SDS011;10390;53.566;9.980;2022-08-25T15:38:37;8.93;;;8.05;;
20462;SDS011;10390;53.566;9.980;2022-08-25T15:41:06;8.98;;;8.15;;
20462;SDS011;10390;53.566;9.980;2022-08-25T15:43:33;8.80;;;8.10;;
20462;SDS011;10390;53.566;9.980;2022-08-25T15:45:59;8.63;;;7.82;;
20462;SDS011;10390;53.566;9.980;2022-08-25T15:48:25;9.30;;;8.60;;
20462;SDS011;10390;53.566;9.980;2022-08-25T15:50:55;8.90;;;8.00;;
20462;SDS011;10390;53.566;9.980;2022-08-25T15:53:22;9.35;;;8.55;;
20462;SDS011;10390;53.566;9.980;2022-08-25T15:55:50;9.13;;;8.32;;
20462;SDS011;10390;53.566;9.980;2022-08-25T15:58:17;9.00;;;8.10;;
20462;SDS011;10390;53.566;9.980;2022-08-25T16:00:43;11.02;;;8.90;;
20462;SDS011;10390;53.566;9.980;2022-08-25T16:03:11;10.02;;;9.20;;
20462;SDS011;10390;53.566;9.980;2022-08-25T16:05:39;11.02;;;9.20;;
20462;SDS011;10390;53.566;9.980;2022-08-25T16:08:06;9.82;;;9.02;;
20462;SDS011;10390;53.566;9.980;2022-08-25T16:10:36;13.23;;;8.50;;
20462;SDS011;10390;53.566;9.980;2022-08-25T16:13:05;8.75;;;7.95;;
20462;SDS011;10390;53.566;9.980;2022-08-25T16:15:32;9.15;;;8.27;;
20462;SDS011;10390;53.566;9.980;2022-08-25T16:17:58;9.60;;;8.18;;
20462;SDS011;10390;53.566;9.980;2022-08-25T16:20:26;9.48;;;8.57;;
20462;SDS011;10390;53.566;9.980;2022-08-25T16:22:54;9.13;;;8.32;;
20462;SDS011;10390;53.566;9.980;2022-08-25T16:25:20;9.35;;;8.55;;
20462;SDS011;10390;53.566;9.980;2022-08-25T16:27:46;8.20;;;7.60;;
20462;SDS011;10390;53.566;9.980;2022-08-25T16:30:12;8.55;;;7.85;;
20462;SDS011;10390;53.566;9.980;2022-08-25T16:32:39;8.98;;;8.18;;
20462;SDS011;10390;53.566;9.980;2022-08-25T16:35:05;9.35;;;8.48;;
20462;SDS011;10390;53.566;9.980;2022-08-25T16:37:32;9.30;;;8.45;;
20462;SDS011;10390;53.566;9.980;2022-08-25T16:39:59;9.18;;;8.23;;
20462;SDS011;10390;53.566;9.980;2022-08-25T16:42:26;8.75;;;8.02;;
20462;SDS011;10390;53.566;9.980;2022-08-25T16:44:53;8.63;;;7.93;;
20462;SDS011;10390;53.566;9.980;2022-08-25T16:47:19;9.20;;;8.40;;
20462;SDS011;10390;53.566;9.980;2022-08-25T16:49:45;9.40;;;8.27;;
20462;SDS011;10390;53.566;9.980;2022-08-25T16:52:11;10.00;;;8.65;;
20462;SDS011;10390;53.566;9.980;2022-08-25T16:54:57;8.57;;;7.78;;
20462;SDS011;10390;53.566;9.980;2022-08-25T16:57:40;9.35;;;8.35;;
20462;SDS011;10390;53.566;9.980;2022-08-25T17:00:13;8.40;;;7.60;;
20462;SDS011;10390;53.566;9.980;2022-08-25T17:02:46;9.55;;;8.60;;
20462;SDS011;10390;53.566;9.980;2022-08-25T17:05:13;9.02;;;7.82;;
20462;SDS011;10390;53.566;9.980;2022-08-25T17:07:39;14.30;;;7.55;;
20462;SDS011;10390;53.566;9.980;2022-08-25T17:10:05;7.55;;;6.82;;
20462;SDS011;10390;53.566;9.980;2022-08-25T17:12:32;7.63;;;6.93;;
20462;SDS011;10390;53.566;9.980;2022-08-25T17:14:57;7.82;;;7.13;;
20462;SDS011;10390;53.566;9.980;2022-08-25T17:17:24;8.27;;;7.40;;
20462;SDS011;10390;53.566;9.980;2022-08-25T17:19:50;8.38;;;7.53;;
20462;SDS011;10390;53.566;9.980;2022-08-25T17:22:16;8.55;;;7.20;;
20462;SDS011;10390;53.566;9.980;2022-08-25T17:24:42;8.60;;;7.80;;
20462;SDS011;10390;53.566;9.980;2022-08-25T17:27:10;8.20;;;7.50;;